N81BZ KBZN-KEGE
Flight info
| Callsign | N81BZ |
|---|---|
| Flight time | 1h 24m |
| Altitude | 41000 |
| Route | BOY/N0463F400 HYPPE AAVON1 |
| Aircraft | CL60/M-SBDE1E2E3FGHIJ1J4J5J7M3RWXYZ/LB1V1D1 |
Departure
| Time | 2026-04-28 20:30 |
|---|---|
| Airport | Bozeman Yellowstone International Airport (KBZN) |
Arrival
| Time | 2026-04-28 21:55 |
|---|---|
| Airport | Eagle County Regional Airport (KEGE) |
| Time | Latitude | Longitude | Altitude | Speed | Heading |
|---|---|---|---|---|---|
| 2026-04-28 19:43 | 45.77414 | -111.15337 | 4470 ft | 0 kts | 315° |
| 2026-04-28 20:23 | 45.77416 | -111.15339 | 4470 ft | 2 kts | 317° |
| 2026-04-28 20:23 | 45.77434 | -111.15351 | 4469 ft | 2 kts | 359° |
| 2026-04-28 20:23 | 45.77450 | -111.15344 | 4469 ft | 3 kts | 29° |
| 2026-04-28 20:24 | 45.77453 | -111.15341 | 4468 ft | 1 kts | 32° |
| 2026-04-28 20:24 | 45.77469 | -111.15316 | 4468 ft | 5 kts | 53° |
| 2026-04-28 20:24 | 45.77488 | -111.15253 | 4467 ft | 8 kts | 94° |
| 2026-04-28 20:24 | 45.77448 | -111.15173 | 4468 ft | 10 kts | 135° |
| 2026-04-28 20:25 | 45.77391 | -111.15095 | 4469 ft | 12 kts | 135° |
| 2026-04-28 20:25 | 45.77328 | -111.15000 | 4470 ft | 13 kts | 133° |
| 2026-04-28 20:25 | 45.77323 | -111.14992 | 4470 ft | 13 kts | 133° |
| 2026-04-28 20:25 | 45.77261 | -111.14908 | 4471 ft | 15 kts | 137° |
| 2026-04-28 20:26 | 45.77179 | -111.14797 | 4472 ft | 16 kts | 136° |
| 2026-04-28 20:26 | 45.77089 | -111.14674 | 4473 ft | 18 kts | 135° |
| 2026-04-28 20:26 | 45.76996 | -111.14544 | 4474 ft | 18 kts | 136° |
| 2026-04-28 20:26 | 45.76924 | -111.14436 | 4474 ft | 12 kts | 110° |
| 2026-04-28 20:27 | 45.76958 | -111.14342 | 4474 ft | 9 kts | 45° |
| 2026-04-28 20:27 | 45.76962 | -111.14338 | 4474 ft | 0 kts | 45° |
| 2026-04-28 20:28 | 45.76967 | -111.14330 | 4474 ft | 6 kts | 46° |
| 2026-04-28 20:28 | 45.76972 | -111.14322 | 4473 ft | 0 kts | 46° |
| 2026-04-28 20:29 | 45.76973 | -111.14321 | 4473 ft | 0 kts | 46° |
| 2026-04-28 20:29 | 45.76996 | -111.14285 | 4473 ft | 9 kts | 47° |
| 2026-04-28 20:29 | 45.77065 | -111.14232 | 4473 ft | 13 kts | 334° |
| 2026-04-28 20:30 | 45.77086 | -111.14260 | 4472 ft | 10 kts | 315° |
| 2026-04-28 20:30 | 45.77344 | -111.14619 | 4469 ft | 96 kts | 315° |
| 2026-04-28 20:30 | 45.78005 | -111.15524 | 4534 ft | 158 kts | 317° |
| 2026-04-28 20:30 | 45.78882 | -111.16672 | 5091 ft | 181 kts | 317° |
| 2026-04-28 20:31 | 45.79822 | -111.17825 | 5977 ft | 185 kts | 315° |
| 2026-04-28 20:31 | 45.80761 | -111.19142 | 6759 ft | 202 kts | 315° |
| 2026-04-28 20:31 | 45.81813 | -111.20631 | 7561 ft | 221 kts | 314° |
| 2026-04-28 20:31 | 45.82920 | -111.22192 | 8489 ft | 235 kts | 314° |
| 2026-04-28 20:32 | 45.84101 | -111.23854 | 9532 ft | 246 kts | 314° |
| 2026-04-28 20:32 | 45.85325 | -111.25573 | 10645 ft | 253 kts | 314° |
| 2026-04-28 20:32 | 45.86586 | -111.27344 | 11836 ft | 258 kts | 315° |
| 2026-04-28 20:32 | 45.87853 | -111.29126 | 13068 ft | 260 kts | 315° |
| 2026-04-28 20:33 | 45.89180 | -111.30807 | 14310 ft | 260 kts | 326° |
| 2026-04-28 20:33 | 45.90856 | -111.31857 | 15240 ft | 275 kts | 346° |
| 2026-04-28 20:33 | 45.92809 | -111.31889 | 15969 ft | 297 kts | 10° |
| 2026-04-28 20:33 | 45.94696 | -111.30550 | 16871 ft | 314 kts | 38° |
| 2026-04-28 20:34 | 45.96247 | -111.28324 | 17826 ft | 321 kts | 43° |
| 2026-04-28 20:34 | 45.97643 | -111.25846 | 18765 ft | 330 kts | 56° |
| 2026-04-28 20:34 | 45.98519 | -111.22789 | 19641 ft | 340 kts | 75° |
| 2026-04-28 20:34 | 45.98680 | -111.19340 | 20474 ft | 350 kts | 94° |
| 2026-04-28 20:35 | 45.98038 | -111.15980 | 21229 ft | 359 kts | 114° |
| 2026-04-28 20:35 | 45.96709 | -111.12879 | 21929 ft | 367 kts | 124° |
| 2026-04-28 20:35 | 45.95274 | -111.09882 | 22660 ft | 370 kts | 124° |
| 2026-04-28 20:35 | 45.93822 | -111.06826 | 23395 ft | 373 kts | 123° |
| 2026-04-28 20:36 | 45.92361 | -111.03750 | 24116 ft | 377 kts | 123° |
| 2026-04-28 20:36 | 45.90839 | -111.00697 | 24835 ft | 382 kts | 130° |
| 2026-04-28 20:36 | 45.88820 | -110.98189 | 25477 ft | 387 kts | 148° |
| 2026-04-28 20:36 | 45.86487 | -110.96197 | 26061 ft | 392 kts | 150° |
| 2026-04-28 20:37 | 45.84207 | -110.94274 | 26679 ft | 395 kts | 150° |
| 2026-04-28 20:37 | 45.81855 | -110.92283 | 27293 ft | 398 kts | 150° |
| 2026-04-28 20:37 | 45.79448 | -110.90244 | 27871 ft | 402 kts | 150° |
| 2026-04-28 20:37 | 45.77052 | -110.88215 | 28427 ft | 405 kts | 150° |
| 2026-04-28 20:38 | 45.74609 | -110.86147 | 29000 ft | 408 kts | 150° |
| 2026-04-28 20:38 | 45.72156 | -110.84071 | 29504 ft | 412 kts | 150° |
| 2026-04-28 20:38 | 45.69690 | -110.81983 | 29978 ft | 415 kts | 150° |
| 2026-04-28 20:38 | 45.67202 | -110.79877 | 30469 ft | 418 kts | 151° |
| 2026-04-28 20:39 | 45.64691 | -110.77751 | 30895 ft | 422 kts | 151° |
| 2026-04-28 20:39 | 45.62174 | -110.75622 | 31326 ft | 424 kts | 151° |
| 2026-04-28 20:39 | 45.59638 | -110.73479 | 31729 ft | 426 kts | 151° |
| 2026-04-28 20:39 | 45.57057 | -110.71298 | 32116 ft | 429 kts | 151° |
| 2026-04-28 20:40 | 45.54490 | -110.69132 | 32500 ft | 431 kts | 151° |
| 2026-04-28 20:40 | 45.51918 | -110.66963 | 32869 ft | 433 kts | 151° |
| 2026-04-28 20:40 | 45.49291 | -110.64749 | 33216 ft | 436 kts | 151° |
| 2026-04-28 20:40 | 45.46680 | -110.62552 | 33541 ft | 438 kts | 151° |
| 2026-04-28 20:41 | 45.44067 | -110.60355 | 33867 ft | 440 kts | 152° |
| 2026-04-28 20:41 | 45.41445 | -110.58152 | 34192 ft | 440 kts | 152° |
| 2026-04-28 20:41 | 45.38791 | -110.55924 | 34557 ft | 439 kts | 152° |
| 2026-04-28 20:41 | 45.36163 | -110.53719 | 34925 ft | 438 kts | 152° |
| 2026-04-28 20:42 | 45.33546 | -110.51527 | 35272 ft | 437 kts | 152° |
| 2026-04-28 20:42 | 45.30958 | -110.49348 | 35574 ft | 436 kts | 150° |
| 2026-04-28 20:42 | 45.28410 | -110.47010 | 35865 ft | 436 kts | 148° |
| 2026-04-28 20:42 | 45.25851 | -110.44610 | 36153 ft | 436 kts | 148° |
| 2026-04-28 20:43 | 45.23333 | -110.42254 | 36422 ft | 436 kts | 148° |
| 2026-04-28 20:43 | 45.20800 | -110.39887 | 36671 ft | 436 kts | 149° |
| 2026-04-28 20:43 | 45.18259 | -110.37515 | 36896 ft | 436 kts | 149° |
| 2026-04-28 20:43 | 45.15730 | -110.35158 | 37114 ft | 437 kts | 149° |
| 2026-04-28 20:44 | 45.13176 | -110.32780 | 37352 ft | 437 kts | 149° |
| 2026-04-28 20:44 | 45.10647 | -110.30430 | 37562 ft | 437 kts | 149° |
| 2026-04-28 20:44 | 45.08094 | -110.28060 | 37793 ft | 437 kts | 149° |
| 2026-04-28 20:44 | 45.05550 | -110.25699 | 38007 ft | 437 kts | 149° |
| 2026-04-28 20:45 | 45.03008 | -110.23341 | 38225 ft | 437 kts | 149° |
| 2026-04-28 20:45 | 45.00488 | -110.21007 | 38415 ft | 437 kts | 149° |
| 2026-04-28 20:45 | 44.97922 | -110.18634 | 38606 ft | 438 kts | 149° |
| 2026-04-28 20:46 | 44.92912 | -110.13566 | 38631 ft | 452 kts | 140° |
| 2026-04-28 20:46 | 44.88235 | -110.07497 | 38636 ft | 463 kts | 140° |
| 2026-04-28 20:47 | 44.83439 | -110.01287 | 38639 ft | 472 kts | 140° |
| 2026-04-28 20:47 | 44.78568 | -109.95001 | 38650 ft | 480 kts | 140° |
| 2026-04-28 20:48 | 44.73613 | -109.88625 | 38733 ft | 485 kts | 140° |
| 2026-04-28 20:48 | 44.68633 | -109.82234 | 38936 ft | 486 kts | 140° |
| 2026-04-28 20:48 | 44.66134 | -109.79034 | 39054 ft | 486 kts | 140° |
| 2026-04-28 20:49 | 44.63637 | -109.75839 | 39190 ft | 486 kts | 140° |
| 2026-04-28 20:49 | 44.61129 | -109.72633 | 39337 ft | 485 kts | 140° |
| 2026-04-28 20:49 | 44.58653 | -109.69472 | 39451 ft | 484 kts | 140° |
| 2026-04-28 20:49 | 44.56177 | -109.66316 | 39553 ft | 485 kts | 140° |
| 2026-04-28 20:50 | 44.53667 | -109.63120 | 39668 ft | 484 kts | 140° |
| 2026-04-28 20:50 | 44.51155 | -109.59925 | 39770 ft | 484 kts | 140° |
| 2026-04-28 20:50 | 44.48674 | -109.56775 | 39870 ft | 484 kts | 140° |
| 2026-04-28 20:51 | 44.43703 | -109.50472 | 40267 ft | 478 kts | 140° |
| 2026-04-28 20:51 | 44.41277 | -109.47401 | 40622 ft | 471 kts | 140° |
| 2026-04-28 20:51 | 44.38840 | -109.44319 | 40966 ft | 465 kts | 140° |
| 2026-04-28 20:51 | 44.37263 | -109.42326 | 41085 ft | 464 kts | 140° |
| 2026-04-28 20:52 | 44.34047 | -109.38273 | 41103 ft | 467 kts | 140° |
| 2026-04-28 20:52 | 44.29189 | -109.32160 | 41047 ft | 473 kts | 141° |
| 2026-04-28 20:53 | 44.21815 | -109.22915 | 40975 ft | 479 kts | 141° |
| 2026-04-28 20:53 | 44.16869 | -109.16730 | 40998 ft | 480 kts | 141° |
| 2026-04-28 20:54 | 44.11894 | -109.10523 | 41052 ft | 481 kts | 141° |
| 2026-04-28 20:54 | 44.06929 | -109.04344 | 41050 ft | 482 kts | 141° |
| 2026-04-28 20:55 | 44.01913 | -108.98117 | 41074 ft | 483 kts | 141° |
| 2026-04-28 20:55 | 43.96919 | -108.91930 | 41067 ft | 483 kts | 141° |
| 2026-04-28 20:56 | 43.91885 | -108.85710 | 41075 ft | 483 kts | 141° |
| 2026-04-28 20:56 | 43.86886 | -108.79546 | 41081 ft | 482 kts | 141° |
| 2026-04-28 20:57 | 43.81874 | -108.73381 | 41075 ft | 483 kts | 141° |
| 2026-04-28 20:57 | 43.76875 | -108.67245 | 41084 ft | 483 kts | 141° |
| 2026-04-28 20:58 | 43.71853 | -108.61098 | 41083 ft | 483 kts | 141° |
| 2026-04-28 20:58 | 43.66822 | -108.54953 | 41091 ft | 483 kts | 141° |
| 2026-04-28 20:59 | 43.61789 | -108.48820 | 41077 ft | 483 kts | 141° |
| 2026-04-28 20:59 | 43.56737 | -108.42720 | 41081 ft | 482 kts | 144° |
| 2026-04-28 21:00 | 43.51137 | -108.37785 | 41046 ft | 476 kts | 158° |
| 2026-04-28 21:00 | 43.44968 | -108.34831 | 41036 ft | 468 kts | 172° |
| 2026-04-28 21:01 | 43.38550 | -108.33827 | 41052 ft | 461 kts | 184° |
| 2026-04-28 21:01 | 43.32205 | -108.34602 | 41069 ft | 455 kts | 195° |
| 2026-04-28 21:02 | 43.26062 | -108.36510 | 41078 ft | 454 kts | 198° |
| 2026-04-28 21:02 | 43.19894 | -108.38502 | 41080 ft | 455 kts | 198° |
| 2026-04-28 21:03 | 43.13725 | -108.40486 | 41095 ft | 455 kts | 198° |
| 2026-04-28 21:03 | 43.07511 | -108.42477 | 41094 ft | 455 kts | 198° |
| 2026-04-28 21:04 | 43.01358 | -108.44441 | 41093 ft | 454 kts | 198° |
| 2026-04-28 21:04 | 42.95250 | -108.46384 | 41093 ft | 453 kts | 198° |
| 2026-04-28 21:05 | 42.89080 | -108.48343 | 41093 ft | 453 kts | 198° |
| 2026-04-28 21:05 | 42.83194 | -108.50208 | 41087 ft | 454 kts | 198° |
| 2026-04-28 21:06 | 42.77020 | -108.52159 | 41104 ft | 454 kts | 198° |
| 2026-04-28 21:06 | 42.70895 | -108.54089 | 41092 ft | 454 kts | 198° |
| 2026-04-28 21:07 | 42.64737 | -108.56024 | 41088 ft | 454 kts | 198° |
| 2026-04-28 21:07 | 42.58584 | -108.57954 | 41087 ft | 454 kts | 198° |
| 2026-04-28 21:08 | 42.52395 | -108.59892 | 41076 ft | 453 kts | 198° |
| 2026-04-28 21:08 | 42.46281 | -108.61801 | 41080 ft | 453 kts | 198° |
| 2026-04-28 21:09 | 42.40147 | -108.63713 | 41081 ft | 453 kts | 198° |
| 2026-04-28 21:09 | 42.33965 | -108.65636 | 41084 ft | 454 kts | 197° |
| 2026-04-28 21:10 | 42.27803 | -108.67549 | 41095 ft | 454 kts | 197° |
| 2026-04-28 21:10 | 42.21675 | -108.69447 | 41105 ft | 454 kts | 197° |
| 2026-04-28 21:11 | 42.15507 | -108.71355 | 41104 ft | 453 kts | 197° |
| 2026-04-28 21:11 | 42.09344 | -108.73256 | 41107 ft | 453 kts | 197° |
| 2026-04-28 21:12 | 42.03218 | -108.75143 | 41113 ft | 453 kts | 197° |
| 2026-04-28 21:12 | 41.97062 | -108.77035 | 41119 ft | 453 kts | 198° |
| 2026-04-28 21:13 | 41.90895 | -108.78926 | 41126 ft | 453 kts | 198° |
| 2026-04-28 21:13 | 41.84742 | -108.80810 | 41118 ft | 452 kts | 198° |
| 2026-04-28 21:14 | 41.78633 | -108.82676 | 41126 ft | 452 kts | 198° |
| 2026-04-28 21:14 | 41.72506 | -108.84544 | 41127 ft | 452 kts | 198° |
| 2026-04-28 21:15 | 41.66344 | -108.86419 | 41144 ft | 451 kts | 198° |
| 2026-04-28 21:15 | 41.60224 | -108.88278 | 41154 ft | 451 kts | 198° |
| 2026-04-28 21:16 | 41.54100 | -108.90134 | 41160 ft | 450 kts | 198° |
| 2026-04-28 21:16 | 41.47992 | -108.91982 | 41162 ft | 450 kts | 198° |
| 2026-04-28 21:17 | 41.41878 | -108.93828 | 41157 ft | 450 kts | 198° |
| 2026-04-28 21:17 | 41.35791 | -108.95662 | 41164 ft | 449 kts | 198° |
| 2026-04-28 21:18 | 41.29656 | -108.97508 | 41173 ft | 449 kts | 198° |
| 2026-04-28 21:18 | 41.23571 | -108.99333 | 41163 ft | 448 kts | 198° |
| 2026-04-28 21:19 | 41.17471 | -109.01160 | 41168 ft | 448 kts | 199° |
| 2026-04-28 21:19 | 41.11398 | -109.02976 | 41171 ft | 447 kts | 199° |
| 2026-04-28 21:20 | 41.05329 | -109.04788 | 41161 ft | 447 kts | 199° |
| 2026-04-28 21:20 | 40.99272 | -109.06593 | 41157 ft | 447 kts | 199° |
| 2026-04-28 21:21 | 40.93201 | -109.08397 | 41163 ft | 446 kts | 199° |
| 2026-04-28 21:21 | 40.87138 | -109.10197 | 41159 ft | 446 kts | 199° |
| 2026-04-28 21:22 | 40.81065 | -109.11995 | 41168 ft | 445 kts | 199° |
| 2026-04-28 21:22 | 40.76065 | -109.13474 | 41165 ft | 445 kts | 199° |
| 2026-04-28 21:23 | 40.68975 | -109.15565 | 41177 ft | 444 kts | 199° |
| 2026-04-28 21:23 | 40.62940 | -109.17342 | 41183 ft | 444 kts | 199° |
| 2026-04-28 21:24 | 40.56925 | -109.19111 | 41182 ft | 443 kts | 199° |
| 2026-04-28 21:24 | 40.50767 | -109.20322 | 41193 ft | 451 kts | 189° |
| 2026-04-28 21:25 | 40.44425 | -109.19859 | 41193 ft | 462 kts | 177° |
| 2026-04-28 21:25 | 40.38169 | -109.17515 | 41188 ft | 474 kts | 163° |
| 2026-04-28 21:26 | 40.32379 | -109.13123 | 41196 ft | 486 kts | 148° |
| 2026-04-28 21:26 | 40.27652 | -109.06730 | 41182 ft | 498 kts | 131° |
| 2026-04-28 21:27 | 40.23608 | -108.99305 | 41169 ft | 499 kts | 130° |
| 2026-04-28 21:27 | 40.19757 | -108.92245 | 41166 ft | 498 kts | 130° |
| 2026-04-28 21:28 | 40.15742 | -108.84901 | 41164 ft | 498 kts | 130° |
| 2026-04-28 21:28 | 40.11717 | -108.77557 | 41170 ft | 498 kts | 130° |
| 2026-04-28 21:29 | 40.07702 | -108.70242 | 41169 ft | 499 kts | 130° |
| 2026-04-28 21:29 | 40.03650 | -108.62877 | 41156 ft | 499 kts | 130° |
| 2026-04-28 21:30 | 39.99575 | -108.55486 | 41155 ft | 499 kts | 131° |
| 2026-04-28 21:30 | 39.95540 | -108.48183 | 41144 ft | 500 kts | 131° |
| 2026-04-28 21:31 | 39.91440 | -108.40789 | 40634 ft | 511 kts | 131° |
| 2026-04-28 21:31 | 39.89353 | -108.37031 | 40024 ft | 512 kts | 131° |
| 2026-04-28 21:31 | 39.87284 | -108.33298 | 39386 ft | 510 kts | 131° |
| 2026-04-28 21:32 | 39.85342 | -108.29403 | 38670 ft | 514 kts | 126° |
| 2026-04-28 21:32 | 39.83703 | -108.25266 | 37927 ft | 518 kts | 119° |
| 2026-04-28 21:32 | 39.82383 | -108.20845 | 37185 ft | 523 kts | 112° |
| 2026-04-28 21:32 | 39.81451 | -108.16329 | 36453 ft | 527 kts | 105° |
| 2026-04-28 21:33 | 39.80906 | -108.11612 | 35755 ft | 531 kts | 97° |
| 2026-04-28 21:33 | 39.80760 | -108.06771 | 34735 ft | 545 kts | 90° |
| 2026-04-28 21:33 | 39.81101 | -108.01898 | 33638 ft | 540 kts | 79° |
| 2026-04-28 21:33 | 39.81967 | -107.97238 | 33271 ft | 530 kts | 71° |
| 2026-04-28 21:34 | 39.83253 | -107.92760 | 32466 ft | 537 kts | 64° |
| 2026-04-28 21:34 | 39.84562 | -107.88225 | 32006 ft | 536 kts | 74° |
| 2026-04-28 21:34 | 39.85189 | -107.83464 | 31510 ft | 535 kts | 79° |
| 2026-04-28 21:34 | 39.85820 | -107.78677 | 31653 ft | 528 kts | 79° |
| 2026-04-28 21:35 | 39.87580 | -107.69313 | 30869 ft | 544 kts | 72° |
| 2026-04-28 21:35 | 39.88661 | -107.64667 | 30291 ft | 532 kts | 67° |
| 2026-04-28 21:35 | 39.90037 | -107.60262 | 29689 ft | 522 kts | 67° |
| 2026-04-28 21:36 | 39.91183 | -107.55849 | 29068 ft | 513 kts | 65° |
| 2026-04-28 21:36 | 39.92694 | -107.51655 | 28425 ft | 502 kts | 58° |
| 2026-04-28 21:36 | 39.94353 | -107.47746 | 27984 ft | 490 kts | 57° |
| 2026-04-28 21:36 | 39.95991 | -107.43941 | 27530 ft | 480 kts | 54° |
| 2026-04-28 21:37 | 39.97729 | -107.40233 | 26795 ft | 479 kts | 56° |
| 2026-04-28 21:37 | 39.99315 | -107.36364 | 25208 ft | 498 kts | 62° |
| 2026-04-28 21:37 | 40.00814 | -107.32257 | 23782 ft | 505 kts | 62° |
| 2026-04-28 21:37 | 40.02348 | -107.28238 | 22800 ft | 492 kts | 60° |
| 2026-04-28 21:38 | 40.03156 | -107.25969 | 21881 ft | 494 kts | 65° |
| 2026-04-28 21:39 | 40.04031 | -107.23123 | 20642 ft | 495 kts | 66° |
| 2026-04-28 21:39 | 40.05010 | -107.18858 | 19624 ft | 477 kts | 81° |
| 2026-04-28 21:40 | 40.05304 | -107.14825 | 20012 ft | 428 kts | 84° |
| 2026-04-28 21:40 | 40.05563 | -107.11051 | 19776 ft | 412 kts | 84° |
| 2026-04-28 21:40 | 40.05838 | -107.07419 | 19456 ft | 395 kts | 83° |
| 2026-04-28 21:40 | 40.06133 | -107.03854 | 18837 ft | 386 kts | 83° |
| 2026-04-28 21:41 | 40.06445 | -107.00487 | 18496 ft | 370 kts | 82° |
| 2026-04-28 21:41 | 40.06789 | -106.97185 | 18047 ft | 359 kts | 81° |
| 2026-04-28 21:41 | 40.07121 | -106.93999 | 17696 ft | 356 kts | 81° |
| 2026-04-28 21:41 | 40.07457 | -106.90782 | 17204 ft | 355 kts | 82° |
| 2026-04-28 21:42 | 40.07786 | -106.87622 | 16781 ft | 351 kts | 82° |
| 2026-04-28 21:42 | 40.08109 | -106.84525 | 16347 ft | 340 kts | 81° |
| 2026-04-28 21:42 | 40.08361 | -106.81538 | 15971 ft | 329 kts | 90° |
| 2026-04-28 21:42 | 40.08140 | -106.78608 | 15711 ft | 314 kts | 99° |
| 2026-04-28 21:43 | 40.07850 | -106.75844 | 15762 ft | 314 kts | 98° |
| 2026-04-28 21:43 | 40.07556 | -106.72978 | 15500 ft | 318 kts | 98° |
| 2026-04-28 21:43 | 40.07399 | -106.71446 | 15465 ft | 313 kts | 98° |
| 2026-04-28 21:43 | 40.07195 | -106.69463 | 15322 ft | 315 kts | 96° |
| 2026-04-28 21:44 | 40.06908 | -106.66672 | 15108 ft | 297 kts | 96° |
| 2026-04-28 21:44 | 40.06575 | -106.64120 | 14984 ft | 284 kts | 106° |
| 2026-04-28 21:44 | 40.05708 | -106.61848 | 14873 ft | 271 kts | 126° |
| 2026-04-28 21:44 | 40.04360 | -106.60165 | 14654 ft | 268 kts | 147° |
| 2026-04-28 21:45 | 40.02686 | -106.59158 | 14573 ft | 265 kts | 167° |
| 2026-04-28 21:45 | 40.00887 | -106.58877 | 14409 ft | 258 kts | 186° |
| 2026-04-28 21:45 | 39.99101 | -106.59129 | 14396 ft | 256 kts | 192° |
| 2026-04-28 21:45 | 39.97324 | -106.59423 | 14287 ft | 256 kts | 191° |
| 2026-04-28 21:46 | 39.95580 | -106.59705 | 14132 ft | 251 kts | 192° |
| 2026-04-28 21:46 | 39.93853 | -106.59982 | 14030 ft | 245 kts | 192° |
| 2026-04-28 21:46 | 39.92177 | -106.60252 | 13884 ft | 240 kts | 192° |
| 2026-04-28 21:46 | 39.90543 | -106.60516 | 13670 ft | 236 kts | 192° |
| 2026-04-28 21:47 | 39.88921 | -106.60777 | 13421 ft | 229 kts | 192° |
| 2026-04-28 21:47 | 39.87363 | -106.61028 | 13237 ft | 224 kts | 191° |
| 2026-04-28 21:47 | 39.85832 | -106.61276 | 13096 ft | 221 kts | 191° |
| 2026-04-28 21:47 | 39.84301 | -106.61525 | 12917 ft | 218 kts | 192° |
| 2026-04-28 21:48 | 39.82815 | -106.61765 | 12756 ft | 216 kts | 192° |
| 2026-04-28 21:48 | 39.81314 | -106.62009 | 12583 ft | 215 kts | 192° |
| 2026-04-28 21:48 | 39.79837 | -106.62249 | 12369 ft | 215 kts | 191° |
| 2026-04-28 21:48 | 39.78351 | -106.62490 | 12133 ft | 214 kts | 191° |
| 2026-04-28 21:49 | 39.76873 | -106.62730 | 11942 ft | 213 kts | 191° |
| 2026-04-28 21:49 | 39.75396 | -106.62969 | 11729 ft | 213 kts | 192° |
| 2026-04-28 21:49 | 39.73922 | -106.63207 | 11542 ft | 212 kts | 191° |
| 2026-04-28 21:49 | 39.72461 | -106.63444 | 11318 ft | 212 kts | 192° |
| 2026-04-28 21:50 | 39.70995 | -106.63681 | 11119 ft | 211 kts | 192° |
| 2026-04-28 21:50 | 39.69637 | -106.64253 | 10910 ft | 204 kts | 217° |
| 2026-04-28 21:50 | 39.68626 | -106.65532 | 10738 ft | 200 kts | 232° |
| 2026-04-28 21:50 | 39.67688 | -106.66878 | 10525 ft | 201 kts | 231° |
| 2026-04-28 21:51 | 39.66877 | -106.68298 | 10326 ft | 195 kts | 249° |
| 2026-04-28 21:51 | 39.66589 | -106.70008 | 10156 ft | 196 kts | 264° |
| 2026-04-28 21:51 | 39.66423 | -106.71756 | 9937 ft | 196 kts | 263° |
| 2026-04-28 21:51 | 39.66241 | -106.73488 | 9614 ft | 191 kts | 263° |
| 2026-04-28 21:52 | 39.66066 | -106.75080 | 9366 ft | 167 kts | 263° |
| 2026-04-28 21:52 | 39.65911 | -106.76517 | 9067 ft | 155 kts | 265° |
| 2026-04-28 21:52 | 39.65765 | -106.77872 | 8829 ft | 150 kts | 264° |
| 2026-04-28 21:52 | 39.65624 | -106.79182 | 8596 ft | 147 kts | 264° |
| 2026-04-28 21:53 | 39.65482 | -106.80496 | 8379 ft | 147 kts | 264° |
| 2026-04-28 21:53 | 39.65342 | -106.81794 | 8160 ft | 144 kts | 265° |
| 2026-04-28 21:53 | 39.65204 | -106.83069 | 7935 ft | 142 kts | 263° |
| 2026-04-28 21:53 | 39.65060 | -106.84367 | 7661 ft | 145 kts | 265° |
| 2026-04-28 21:54 | 39.64946 | -106.85618 | 7454 ft | 139 kts | 266° |
| 2026-04-28 21:54 | 39.64816 | -106.86864 | 7274 ft | 139 kts | 264° |
| 2026-04-28 21:54 | 39.64667 | -106.88108 | 7020 ft | 143 kts | 264° |
| 2026-04-28 21:54 | 39.64521 | -106.89425 | 6815 ft | 150 kts | 264° |
| 2026-04-28 21:55 | 39.64375 | -106.90684 | 6580 ft | 133 kts | 264° |
| 2026-04-28 21:55 | 39.64262 | -106.91728 | 6536 ft | 95 kts | 263° |
| 2026-04-28 21:55 | 39.64195 | -106.92345 | 6518 ft | 49 kts | 263° |
| 2026-04-28 21:55 | 39.64155 | -106.92695 | 6509 ft | 28 kts | 261° |
| 2026-04-28 21:56 | 39.64084 | -106.92793 | 6506 ft | 12 kts | 167° |
| 2026-04-28 21:56 | 39.64045 | -106.92702 | 6509 ft | 14 kts | 81° |
| 2026-04-28 21:56 | 39.64062 | -106.92567 | 6513 ft | 16 kts | 82° |
| 2026-04-28 21:56 | 39.64077 | -106.92411 | 6517 ft | 18 kts | 81° |
| 2026-04-28 21:57 | 39.64089 | -106.92278 | 6521 ft | 14 kts | 85° |
| 2026-04-28 21:57 | 39.64106 | -106.92136 | 6525 ft | 16 kts | 78° |
| 2026-04-28 21:57 | 39.64118 | -106.92033 | 6528 ft | 13 kts | 82° |
| 2026-04-28 21:57 | 39.64132 | -106.91906 | 6531 ft | 13 kts | 81° |
| 2026-04-28 21:58 | 39.64149 | -106.91764 | 6535 ft | 16 kts | 83° |
| 2026-04-28 21:58 | 39.64162 | -106.91631 | 6539 ft | 12 kts | 82° |
| 2026-04-28 21:58 | 39.64176 | -106.91509 | 6542 ft | 15 kts | 80° |
| 2026-04-28 21:58 | 39.64191 | -106.91362 | 6546 ft | 17 kts | 84° |
| 2026-04-28 21:59 | 39.64209 | -106.91201 | 6551 ft | 17 kts | 82° |
| 2026-04-28 21:59 | 39.64228 | -106.91045 | 6555 ft | 15 kts | 82° |
| 2026-04-28 21:59 | 39.64216 | -106.90935 | 6556 ft | 8 kts | 145° |
| 2026-04-28 22:00 | 39.64142 | -106.91054 | 6558 ft | 9 kts | 175° |
| 2026-04-28 22:00 | 39.64109 | -106.91048 | 6559 ft | 0 kts | 170° |